createdAt,value
2023-03-20T00:01:20.130Z,100028.56
2023-03-20T00:03:46.893Z,100023.00
2023-03-20T00:06:20.183Z,100029.06
2023-03-20T00:08:48.704Z,100022.69
2023-03-20T00:11:31.150Z,100022.69
2023-03-20T00:14:00.877Z,100025.81
2023-03-20T00:16:34.563Z,100031.84
2023-03-20T00:19:01.934Z,100027.34
2023-03-20T00:21:28.729Z,100035.91
2023-03-20T00:23:56.650Z,100041.09
2023-03-20T00:26:35.485Z,100044.66
2023-03-20T00:29:04.179Z,100047.91
2023-03-20T00:31:35.420Z,100040.91
2023-03-20T00:34:10.190Z,100035.75
2023-03-20T00:36:36.731Z,100037.50
2023-03-20T00:39:04.651Z,100028.94
2023-03-20T00:41:36.658Z,100029.19
2023-03-20T00:44:12.680Z,100028.53
2023-03-20T00:46:39.791Z,100018.16
2023-03-20T00:49:06.452Z,100022.69
2023-03-20T00:51:33.007Z,100019.34
2023-03-20T00:53:59.641Z,100015.97
2023-03-20T00:56:33.983Z,100009.16
2023-03-20T00:59:04.314Z,100011.03
2023-03-20T01:01:32.148Z,100012.75
2023-03-20T01:03:59.818Z,100001.41
2023-03-20T01:06:26.404Z,99998.94
2023-03-20T01:08:52.930Z,100002.53
2023-03-20T01:11:23.305Z,100006.19
2023-03-20T01:13:52.279Z,100019.28
2023-03-20T01:16:23.095Z,100026.34
2023-03-20T01:18:50.529Z,100038.50
2023-03-20T01:21:18.485Z,100035.69
2023-03-20T01:23:45.134Z,100049.75
2023-03-20T01:26:51.800Z,100052.44
2023-03-20T01:29:21.823Z,100051.16
2023-03-20T01:31:49.523Z,100057.19
2023-03-20T01:34:19.222Z,100057.13
2023-03-20T01:36:52.964Z,100051.84
2023-03-20T01:39:21.895Z,100054.41
2023-03-20T01:41:49.671Z,100058.66
2023-03-20T01:44:22.100Z,100047.16
2023-03-20T01:46:49.986Z,100050.53
2023-03-20T01:49:19.407Z,100055.81
2023-03-20T01:51:49.755Z,100054.03
2023-03-20T01:54:38.000Z,100052.50
2023-03-20T01:57:16.648Z,100058.44
2023-03-20T02:00:04.098Z,100054.31
2023-03-20T02:02:32.001Z,100040.94
2023-03-20T02:05:07.168Z,100047.25
2023-03-20T02:07:34.948Z,100045.53
2023-03-20T02:10:03.887Z,100041.31
2023-03-20T02:12:31.535Z,100047.69
2023-03-20T02:14:58.601Z,100042.66
2023-03-20T02:17:25.025Z,100042.00
2023-03-20T02:20:06.293Z,100049.47
2023-03-20T02:22:51.418Z,100043.34
2023-03-20T02:25:55.133Z,100047.28
2023-03-20T02:28:52.212Z,100048.09
2023-03-20T02:31:54.221Z,100054.41
2023-03-20T02:34:35.920Z,100043.28
2023-03-20T02:37:30.262Z,100047.78
2023-03-20T02:40:10.796Z,100047.94
2023-03-20T02:42:51.120Z,100038.34
2023-03-20T02:45:26.562Z,100027.91
2023-03-20T02:48:17.943Z,100035.00
2023-03-20T02:50:53.860Z,100035.97
2023-03-20T02:53:41.836Z,100035.22
2023-03-20T02:56:11.489Z,100039.44
2023-03-20T02:58:59.318Z,100036.13
2023-03-20T03:01:33.108Z,100039.53
2023-03-20T03:04:25.227Z,100033.47
2023-03-20T03:06:55.683Z,100039.53
2023-03-20T03:09:31.108Z,100038.75
2023-03-20T03:12:05.408Z,100034.25
2023-03-20T03:14:42.820Z,100036.03
2023-03-20T03:17:10.913Z,100028.91
2023-03-20T03:19:41.628Z,100028.91
2023-03-20T03:22:08.342Z,100024.47
2023-03-20T03:24:43.096Z,100021.09
2023-03-20T03:27:21.261Z,100004.63
2023-03-20T03:29:53.850Z,99998.31
2023-03-20T03:32:29.557Z,100000.25
2023-03-20T03:34:57.276Z,100001.03
2023-03-20T03:37:39.317Z,100006.38
2023-03-20T03:40:46.029Z,100004.63
2023-03-20T03:43:23.869Z,99999.16
2023-03-20T03:45:57.861Z,100001.78
2023-03-20T03:48:30.564Z,100005.28
2023-03-20T03:51:02.494Z,100001.69
2023-03-20T03:53:36.462Z,100011.38
2023-03-20T03:56:07.875Z,100013.09
2023-03-20T03:58:42.873Z,100014.00
2023-03-20T04:01:14.308Z,100008.66
2023-03-20T04:04:06.126Z,100013.09
2023-03-20T04:06:33.376Z,100009.38
2023-03-20T04:08:59.687Z,100005.88
2023-03-20T04:11:29.023Z,100004.09
2023-03-20T04:13:55.797Z,99999.66
2023-03-20T04:16:24.358Z,100007.56
2023-03-20T04:18:51.546Z,100008.44
2023-03-20T04:21:18.660Z,99998.84
2023-03-20T04:23:45.342Z,99997.88
2023-03-20T04:26:11.946Z,99988.28
2023-03-20T04:28:38.301Z,99976.03
2023-03-20T04:31:04.786Z,99990.16
2023-03-20T04:33:31.114Z,99992.03
2023-03-20T04:35:57.478Z,99988.53
2023-03-20T04:38:24.404Z,99985.97
2023-03-20T04:40:51.027Z,99990.31
2023-03-20T04:43:17.646Z,99990.50
2023-03-20T04:45:44.131Z,99990.50
2023-03-20T04:48:10.862Z,100000.19
2023-03-20T04:50:37.290Z,99995.00
2023-03-20T04:53:03.788Z,99995.06
2023-03-20T04:55:30.216Z,100005.72
2023-03-20T04:57:56.555Z,99990.06
2023-03-20T05:00:23.211Z,100000.75
2023-03-20T05:02:49.539Z,100000.84
2023-03-20T05:05:15.878Z,99995.78
2023-03-20T05:07:42.184Z,99990.75
2023-03-20T05:10:09.250Z,99990.91
2023-03-20T05:12:35.754Z,100003.38
2023-03-20T05:15:02.161Z,99985.19
2023-03-20T05:17:28.477Z,99985.38
2023-03-20T05:19:54.801Z,99987.22
2023-03-20T05:22:21.135Z,99983.00
2023-03-20T05:24:47.517Z,99980.50
2023-03-20T05:27:13.893Z,99977.19
2023-03-20T05:29:40.295Z,99977.34
2023-03-20T05:32:06.745Z,99972.28
2023-03-20T05:34:33.093Z,99980.34
2023-03-20T05:36:59.510Z,99984.81
2023-03-20T05:39:26.021Z,99979.72
2023-03-20T05:41:52.372Z,99986.00
2023-03-20T05:44:18.711Z,99983.56
2023-03-20T05:46:45.177Z,99992.41
2023-03-20T05:49:11.531Z,99993.34
2023-03-20T05:51:38.095Z,99995.19
2023-03-20T05:54:04.894Z,99996.13
2023-03-20T05:56:31.435Z,99993.50
2023-03-20T05:58:57.764Z,99992.63
2023-03-20T06:01:24.153Z,99994.44
2023-03-20T06:03:50.840Z,99999.69
2023-03-20T06:06:17.797Z,99994.44
2023-03-20T06:08:44.306Z,99995.34
2023-03-20T06:11:12.011Z,100004.19
2023-03-20T06:13:38.384Z,99996.34
2023-03-20T06:16:05.167Z,99999.84
2023-03-20T06:18:31.571Z,100001.53
2023-03-20T06:20:58.096Z,99997.97
2023-03-20T06:23:24.474Z,100012.00
2023-03-20T06:25:51.235Z,100008.44
2023-03-20T06:28:17.640Z,100018.94
2023-03-20T06:30:44.482Z,100021.59
2023-03-20T06:33:10.912Z,100023.28
2023-03-20T06:35:37.536Z,100026.78
2023-03-20T06:38:04.065Z,100023.28
2023-03-20T06:40:30.530Z,100030.25
2023-03-20T06:42:56.999Z,100035.53
2023-03-20T06:45:25.963Z,100036.53
2023-03-20T06:47:52.411Z,100033.81
2023-03-20T06:50:18.860Z,100038.22
2023-03-20T06:52:45.249Z,100040.88
2023-03-20T06:55:11.799Z,100032.03
2023-03-20T06:57:38.541Z,100038.16
2023-03-20T07:00:06.290Z,100044.19
2023-03-20T07:02:33.268Z,100048.31
2023-03-20T07:04:59.645Z,100049.94
2023-03-20T07:07:25.993Z,100052.41
2023-03-20T07:09:52.316Z,100052.22
2023-03-20T07:12:22.872Z,100053.09
2023-03-20T07:14:49.850Z,100055.66
2023-03-20T07:17:16.596Z,100053.78
2023-03-20T07:19:42.933Z,100063.41
2023-03-20T07:22:18.404Z,100065.16
2023-03-20T07:24:47.197Z,100063.31
2023-03-20T07:27:13.745Z,100061.44
2023-03-20T07:29:40.067Z,100069.25
2023-03-20T07:32:06.479Z,100064.88
2023-03-20T07:34:32.799Z,100067.38
2023-03-20T07:36:59.301Z,100067.38
2023-03-20T07:39:25.816Z,100065.47
2023-03-20T07:41:52.285Z,100070.66
2023-03-20T07:44:19.405Z,100074.97
2023-03-20T07:46:49.113Z,100067.00
2023-03-20T07:49:18.350Z,100070.41
2023-03-20T07:51:49.137Z,100075.59
2023-03-20T07:54:16.126Z,100073.81
2023-03-20T07:56:45.269Z,100085.25
2023-03-20T07:59:12.720Z,100066.94
2023-03-20T08:01:44.238Z,100065.13
2023-03-20T08:08:02.314Z,100074.41
2023-03-20T08:10:29.021Z,100067.34
2023-03-20T08:12:56.187Z,100061.16
2023-03-20T08:15:22.722Z,100065.41
2023-03-20T08:17:49.720Z,100063.53
2023-03-20T08:20:17.383Z,100070.41
2023-03-20T08:22:47.131Z,100069.50
2023-03-20T08:25:13.643Z,100080.81
2023-03-20T08:27:40.176Z,100086.75
2023-03-20T08:30:07.477Z,100064.56
2023-03-20T08:32:34.049Z,100078.47
2023-03-20T08:35:00.739Z,100071.22
2023-03-20T08:37:27.794Z,100070.88
2023-03-20T08:39:57.079Z,100080.44
2023-03-20T08:42:23.637Z,100076.50
2023-03-20T08:44:50.568Z,100074.56
2023-03-20T08:47:17.180Z,100077.78
2023-03-20T08:49:43.756Z,100076.69
2023-03-20T08:52:10.331Z,100081.63
2023-03-20T08:54:36.879Z,100071.66
2023-03-20T08:57:03.460Z,100080.25
2023-03-20T08:59:29.932Z,100075.66
2023-03-20T09:01:56.438Z,100071.91
2023-03-20T09:04:23.046Z,100072.50
2023-03-20T09:06:50.520Z,100077.59
2023-03-20T09:09:19.883Z,100077.53
2023-03-20T09:11:46.488Z,100074.88
2023-03-20T09:14:13.078Z,100078.34
2023-03-20T09:16:39.642Z,100082.88
2023-03-20T09:19:06.560Z,100075.81
2023-03-20T09:21:33.018Z,100087.22
2023-03-20T09:23:59.542Z,100084.56
2023-03-20T09:26:25.941Z,100087.03
2023-03-20T09:28:52.403Z,100090.50
2023-03-20T09:31:18.906Z,100094.75
2023-03-20T09:33:45.657Z,100093.84
2023-03-20T09:36:12.348Z,100096.50
2023-03-20T09:38:41.845Z,100092.91
2023-03-20T09:41:18.685Z,100095.63
2023-03-20T09:43:45.427Z,100096.22
2023-03-20T09:46:38.718Z,100102.34
2023-03-20T09:49:23.364Z,100089.75
2023-03-20T09:52:08.071Z,100084.13
2023-03-20T09:54:53.619Z,100096.00
2023-03-20T09:57:35.283Z,100085.03
2023-03-20T10:00:07.875Z,100097.88
2023-03-20T10:02:50.079Z,100084.41
2023-03-20T10:05:31.709Z,100091.97
2023-03-20T10:08:01.910Z,100092.53
2023-03-20T10:11:16.260Z,100072.38
2023-03-20T10:13:58.532Z,100078.22
2023-03-20T10:16:53.203Z,100081.53
2023-03-20T10:19:29.839Z,100072.41
2023-03-20T10:22:02.788Z,100067.81
2023-03-20T10:24:44.377Z,100066.47
2023-03-20T10:27:34.139Z,100066.38
2023-03-20T10:30:25.937Z,100067.88
2023-03-20T10:33:26.756Z,100064.31
2023-03-20T10:36:22.459Z,100059.03
2023-03-20T10:39:12.707Z,100070.34
2023-03-20T10:41:43.163Z,100059.31
2023-03-20T10:44:17.069Z,100061.69
2023-03-20T10:46:51.610Z,100052.63
2023-03-20T10:49:36.468Z,100054.88
2023-03-20T10:52:09.696Z,100050.53
2023-03-20T10:54:43.565Z,100048.81
2023-03-20T10:57:24.882Z,100059.22
2023-03-20T10:59:52.480Z,100057.25
2023-03-20T11:02:23.235Z,100063.53
2023-03-20T11:04:50.446Z,100055.63
2023-03-20T11:07:32.704Z,100055.06
2023-03-20T11:10:05.073Z,100048.34
2023-03-20T11:12:37.644Z,100053.94
2023-03-20T11:15:19.309Z,100060.44
2023-03-20T11:17:57.847Z,100050.16
2023-03-20T11:20:26.738Z,100053.81
2023-03-20T11:23:18.118Z,100052.59
2023-03-20T11:26:04.057Z,100056.38
2023-03-20T11:28:42.364Z,100052.13
2023-03-20T11:31:19.803Z,100052.41
2023-03-20T11:33:52.628Z,100049.00
2023-03-20T11:36:25.326Z,100042.78
2023-03-20T11:38:58.561Z,100040.16
2023-03-20T11:41:28.129Z,100041.00
2023-03-20T11:43:55.260Z,100042.78
2023-03-20T11:46:24.416Z,100037.69
2023-03-20T11:49:17.346Z,100031.75
2023-03-20T11:51:43.957Z,100038.53
2023-03-20T11:54:17.572Z,100035.03
2023-03-20T11:57:00.728Z,100036.00
2023-03-20T11:59:34.074Z,100046.47
2023-03-20T12:02:03.025Z,100041.19
2023-03-20T12:04:37.749Z,100039.75
2023-03-20T12:07:13.126Z,100042.56
2023-03-20T12:09:48.605Z,100046.25
2023-03-20T12:12:36.928Z,100044.25
2023-03-20T12:15:12.732Z,100034.72
2023-03-20T12:18:03.348Z,100035.75
2023-03-20T12:21:04.052Z,100030.47
2023-03-20T12:23:39.865Z,100030.31
2023-03-20T12:26:15.536Z,100030.38
2023-03-20T12:28:52.123Z,100028.50
2023-03-20T12:31:24.866Z,100018.81
2023-03-20T12:33:51.425Z,100028.06
2023-03-20T12:36:27.670Z,100023.63
2023-03-20T12:38:54.144Z,100033.03
2023-03-20T12:41:48.929Z,100040.97
2023-03-20T12:44:21.940Z,100031.94
2023-03-20T12:46:48.577Z,100039.09
2023-03-20T12:49:37.918Z,100039.19
2023-03-20T12:52:44.881Z,100030.13
2023-03-20T12:55:25.761Z,100034.91
2023-03-20T12:58:07.166Z,100023.81
2023-03-20T13:00:49.644Z,100022.13
2023-03-20T13:03:34.254Z,100040.03
2023-03-20T13:06:36.682Z,100024.19
2023-03-20T13:09:23.049Z,100025.97
2023-03-20T13:12:08.755Z,100020.97
2023-03-20T13:14:44.369Z,100023.69
2023-03-20T13:17:33.748Z,100020.66
2023-03-20T13:20:06.468Z,100022.28
2023-03-20T13:22:48.599Z,100024.91
2023-03-20T13:25:32.198Z,100026.59
2023-03-20T13:28:04.437Z,100018.50
2023-03-20T13:30:44.802Z,100024.75
2023-03-20T13:33:45.134Z,100030.00
2023-03-20T13:39:22.187Z,100021.25
2023-03-20T13:41:49.492Z,100019.47
2023-03-20T13:44:20.884Z,100008.91
2023-03-20T13:46:55.254Z,100007.97
2023-03-20T13:49:48.078Z,99998.94
2023-03-20T13:52:19.212Z,99989.53
2023-03-20T13:54:53.608Z,99998.16
2023-03-20T13:58:20.340Z,100005.59
2023-03-20T14:00:56.131Z,99998.94
2023-03-20T14:03:30.836Z,99994.50
2023-03-20T14:05:57.427Z,99990.16
2023-03-20T14:08:26.776Z,100002.50
2023-03-20T14:11:07.735Z,99990.63
2023-03-20T14:13:35.383Z,99985.28
2023-03-20T14:16:07.441Z,99981.28
2023-03-20T14:18:34.040Z,99977.88
2023-03-20T14:21:02.401Z,99980.63
2023-03-20T14:23:34.950Z,99981.81
2023-03-20T14:26:05.933Z,99977.38
2023-03-20T14:28:44.545Z,99981.97
2023-03-20T14:31:23.097Z,99977.38
2023-03-20T14:34:12.485Z,99981.13
2023-03-20T14:36:59.577Z,99975.75
2023-03-20T14:39:41.264Z,99975.66
2023-03-20T14:42:35.325Z,99979.53
2023-03-20T14:45:14.023Z,99981.59
2023-03-20T14:48:01.815Z,99975.91
2023-03-20T14:50:46.477Z,99977.22
2023-03-20T14:53:19.329Z,99969.50
2023-03-20T14:56:05.575Z,99979.63
2023-03-20T14:58:37.791Z,99970.94
2023-03-20T15:01:06.628Z,99974.69
2023-03-20T15:03:33.496Z,99961.72
2023-03-20T15:06:04.520Z,99967.31
2023-03-20T15:08:37.346Z,99974.81
2023-03-20T15:11:08.758Z,99967.03
2023-03-20T15:13:37.566Z,99968.13
2023-03-20T15:16:06.978Z,99969.31
2023-03-20T15:18:39.133Z,99965.31
2023-03-20T15:21:13.289Z,99962.09
2023-03-20T15:23:42.583Z,99962.19
2023-03-20T15:26:09.098Z,99962.34
2023-03-20T15:28:37.951Z,99958.31
2023-03-20T15:31:06.358Z,99950.47
2023-03-20T15:33:36.558Z,99947.06
2023-03-20T15:36:15.998Z,99946.31
2023-03-20T15:38:44.223Z,99945.28
2023-03-20T15:41:31.993Z,99941.88
2023-03-20T15:44:20.628Z,99938.22
2023-03-20T15:47:03.360Z,99945.28
2023-03-20T15:49:32.406Z,99940.69
2023-03-20T15:52:03.038Z,99944.25
2023-03-20T15:54:29.583Z,99934.59
2023-03-20T15:57:00.646Z,99934.75
2023-03-20T15:59:31.396Z,99936.59
2023-03-20T16:01:59.459Z,99931.53
2023-03-20T16:04:26.959Z,99929.94
2023-03-20T16:06:56.220Z,99941.38
2023-03-20T16:09:23.384Z,99936.28
2023-03-20T16:11:59.651Z,99935.78
2023-03-20T16:14:33.498Z,99944.59
2023-03-20T16:17:02.820Z,99941.22
2023-03-20T16:19:29.747Z,99948.34
2023-03-20T16:21:59.552Z,99943.34
2023-03-20T16:24:31.230Z,99944.44
2023-03-20T16:26:58.400Z,99933.22
2023-03-20T16:29:28.122Z,99933.56
2023-03-20T16:32:03.854Z,99932.78
2023-03-20T16:34:38.611Z,99937.13
2023-03-20T16:37:32.576Z,99941.69
2023-03-20T16:40:18.088Z,99947.06
2023-03-20T16:42:45.553Z,99945.34
2023-03-20T16:45:22.068Z,99942.19
2023-03-20T16:47:49.549Z,99944.84
2023-03-20T16:50:19.109Z,99948.50
2023-03-20T16:53:14.168Z,99942.78
2023-03-20T16:55:51.291Z,99930.59
2023-03-20T16:58:21.961Z,99936.78
2023-03-20T17:00:57.511Z,99941.28
2023-03-20T17:03:30.399Z,99934.38
2023-03-20T17:05:59.673Z,99942.28
2023-03-20T17:08:40.059Z,99931.94
2023-03-20T17:11:12.962Z,99940.84
2023-03-20T17:13:41.181Z,99933.84
2023-03-20T17:16:13.689Z,99940.13
2023-03-20T17:18:40.496Z,99948.97
2023-03-20T17:21:07.096Z,99947.25
2023-03-20T17:23:33.444Z,99945.72
2023-03-20T17:25:59.787Z,99932.66
2023-03-20T17:28:33.797Z,99940.78
2023-03-20T17:31:05.007Z,99944.25
2023-03-20T17:33:33.205Z,99946.88
2023-03-20T17:36:00.797Z,99950.38
2023-03-20T17:38:27.614Z,99945.13
2023-03-20T17:40:54.060Z,99948.50
2023-03-20T17:43:20.881Z,99942.31
2023-03-20T17:45:47.772Z,99943.09
2023-03-20T17:48:17.992Z,99941.28
2023-03-20T17:50:45.798Z,99947.50
2023-03-20T17:53:28.747Z,99941.47
2023-03-20T17:55:55.242Z,99932.56
2023-03-20T17:58:23.309Z,99956.31
2023-03-20T18:00:54.748Z,99948.59
2023-03-20T18:03:21.652Z,99945.88
2023-03-20T18:05:50.535Z,99946.81
2023-03-20T18:08:21.318Z,99945.94
2023-03-20T18:10:49.665Z,99945.13
2023-03-20T18:13:20.751Z,99947.69
2023-03-20T18:15:51.523Z,99945.94
2023-03-20T18:18:23.719Z,99944.25
2023-03-20T18:20:52.269Z,99945.94
2023-03-20T18:23:18.739Z,99948.66
2023-03-20T18:25:45.188Z,99947.03
2023-03-20T18:28:18.379Z,99947.22
2023-03-20T18:30:45.985Z,99949.84
2023-03-20T18:33:12.426Z,99944.66
2023-03-20T18:35:38.874Z,99942.97
2023-03-20T18:38:05.578Z,99952.56
2023-03-20T18:40:34.474Z,99952.63
2023-03-20T18:43:01.386Z,99950.75
2023-03-20T18:45:29.658Z,99942.88
2023-03-20T18:47:57.329Z,99950.84
2023-03-20T18:50:35.057Z,99949.13
2023-03-20T18:53:04.535Z,99942.88
2023-03-20T18:55:31.654Z,99942.78
2023-03-20T18:57:58.981Z,99947.97
2023-03-20T19:00:39.829Z,99945.41
2023-03-20T19:03:07.953Z,99944.34
2023-03-20T19:05:34.369Z,99941.63
2023-03-20T19:08:01.050Z,99931.03
2023-03-20T19:10:39.309Z,99936.38
2023-03-20T19:13:07.538Z,99940.63
2023-03-20T19:15:37.140Z,99938.84
2023-03-20T19:18:24.684Z,99935.28
2023-03-20T19:20:53.200Z,99934.34
2023-03-20T19:23:20.548Z,99940.47
2023-03-20T19:25:49.363Z,99931.72
2023-03-20T19:28:39.324Z,99934.53
2023-03-20T19:31:06.873Z,99938.66
2023-03-20T19:33:33.872Z,99935.19
2023-03-20T19:36:03.687Z,99941.22
2023-03-20T19:38:31.559Z,99945.66
2023-03-20T19:40:59.279Z,99939.53
2023-03-20T19:43:25.864Z,99937.84
2023-03-20T19:45:57.999Z,99944.88
2023-03-20T19:48:43.333Z,99934.41
2023-03-20T19:51:19.948Z,99929.16
2023-03-20T19:53:47.077Z,99930.97
2023-03-20T19:56:15.478Z,99935.28
2023-03-20T19:58:43.318Z,99942.22
2023-03-20T20:01:16.019Z,99925.69
2023-03-20T20:03:46.257Z,99934.28
2023-03-20T20:06:13.066Z,99928.00
2023-03-20T20:08:49.047Z,99920.09
2023-03-20T20:11:20.590Z,99917.47
2023-03-20T20:14:05.169Z,99919.16
2023-03-20T20:16:35.393Z,99919.94
2023-03-20T20:19:02.378Z,99909.44
2023-03-20T20:24:16.365Z,99903.38
2023-03-20T20:26:53.394Z,99905.25
2023-03-20T20:29:21.715Z,99915.84
2023-03-20T20:31:48.434Z,99906.34
2023-03-20T20:39:49.834Z,99906.56
2023-03-20T20:42:20.505Z,99904.06
2023-03-20T20:44:47.552Z,99901.56
2023-03-20T20:47:14.731Z,99898.94
2023-03-20T20:49:41.495Z,99901.66
2023-03-20T20:52:08.842Z,99905.22
2023-03-20T20:54:35.330Z,99892.06
2023-03-20T20:57:02.107Z,99897.34
2023-03-20T20:59:29.451Z,99895.63
2023-03-20T21:01:56.441Z,99886.03
2023-03-20T21:04:23.508Z,99888.66
2023-03-20T21:07:08.652Z,99887.81
2023-03-20T21:09:36.678Z,99885.19
2023-03-20T21:12:04.135Z,99889.53
2023-03-20T21:14:30.824Z,99879.06
2023-03-20T21:17:00.964Z,99886.97
2023-03-20T21:19:35.405Z,99883.59
2023-03-20T21:22:01.929Z,99881.63
2023-03-20T21:24:33.638Z,99886.88
2023-03-20T21:27:05.397Z,99890.28
2023-03-20T21:29:31.958Z,99891.13
2023-03-20T21:31:58.609Z,99883.25
2023-03-20T21:34:26.098Z,99878.84
2023-03-20T21:36:52.724Z,99882.31
2023-03-20T21:39:19.398Z,99877.91
2023-03-20T21:41:46.128Z,99879.59
2023-03-20T21:44:17.417Z,99878.59
2023-03-20T21:47:38.087Z,99875.88
2023-03-20T21:50:30.836Z,99878.44
2023-03-20T21:53:14.765Z,99873.84
2023-03-20T21:56:08.983Z,99879.03
2023-03-20T22:04:37.563Z,99883.97
2023-03-20T22:12:30.257Z,99879.25
2023-03-20T22:15:20.083Z,99873.88
2023-03-20T22:17:55.897Z,99877.28
2023-03-20T22:23:42.671Z,99879.75
2023-03-20T22:26:36.394Z,99884.09
2023-03-20T22:45:11.624Z,99884.22
2023-03-20T22:47:38.397Z,99873.69
2023-03-20T22:50:06.233Z,99867.47
2023-03-20T22:52:48.128Z,99875.28
2023-03-20T22:55:16.781Z,99869.00
2023-03-20T22:57:52.888Z,99867.22
2023-03-20T23:00:29.989Z,99867.97
2023-03-20T23:03:06.665Z,99869.72
2023-03-20T23:05:41.092Z,99868.75
2023-03-20T23:08:08.999Z,99873.94
2023-03-20T23:10:38.049Z,99868.59
2023-03-20T23:13:04.733Z,99875.47
2023-03-20T23:15:31.703Z,99870.06
2023-03-20T23:17:58.760Z,99869.84
2023-03-20T23:20:25.634Z,99867.16
2023-03-20T23:22:52.152Z,99868.75
2023-03-20T23:25:36.057Z,99877.44
2023-03-20T23:28:04.916Z,99869.34
2023-03-20T23:30:41.959Z,99875.31
2023-03-20T23:33:10.847Z,99872.47
2023-03-20T23:35:37.486Z,99872.41
2023-03-20T23:38:03.996Z,99870.53
2023-03-20T23:40:31.057Z,99871.38
2023-03-20T23:42:57.629Z,99869.50
2023-03-20T23:45:24.357Z,99868.56
2023-03-20T23:47:51.060Z,99868.50
2023-03-20T23:53:19.461Z,99866.53
2023-03-20T23:55:48.326Z,99857.72
2023-03-20T23:58:15.720Z,99852.44
